sensor_id;sensor_type;location;lat;lon;timestamp;P1;durP1;ratioP1;P2;durP2;ratioP2
52708;SDS011;38606;52.986;6.980;2022-09-30T00:01:09;3.90;;;3.40;;
52708;SDS011;38606;52.986;6.980;2022-09-30T00:03:35;3.67;;;3.17;;
52708;SDS011;38606;52.986;6.980;2022-09-30T00:06:03;4.00;;;3.60;;
52708;SDS011;38606;52.986;6.980;2022-09-30T00:08:30;5.30;;;3.60;;
52708;SDS011;38606;52.986;6.980;2022-09-30T00:11:00;3.80;;;3.40;;
52708;SDS011;38606;52.986;6.980;2022-09-30T00:13:27;3.95;;;3.47;;
52708;SDS011;38606;52.986;6.980;2022-09-30T00:15:54;4.00;;;3.60;;
52708;SDS011;38606;52.986;6.980;2022-09-30T00:18:20;4.68;;;3.28;;
52708;SDS011;38606;52.986;6.980;2022-09-30T00:20:46;6.35;;;3.65;;
52708;SDS011;38606;52.986;6.980;2022-09-30T00:23:12;4.75;;;3.25;;
52708;SDS011;38606;52.986;6.980;2022-09-30T00:53:18;5.72;;;3.83;;
52708;SDS011;38606;52.986;6.980;2022-09-30T00:58:30;5.60;;;3.58;;
52708;SDS011;38606;52.986;6.980;2022-09-30T01:01:01;8.38;;;4.03;;
52708;SDS011;38606;52.986;6.980;2022-09-30T01:03:30;6.82;;;4.38;;
52708;SDS011;38606;52.986;6.980;2022-09-30T01:06:01;6.63;;;4.45;;
52708;SDS011;38606;52.986;6.980;2022-09-30T01:08:26;6.07;;;4.72;;
52708;SDS011;38606;52.986;6.980;2022-09-30T01:10:54;6.03;;;4.72;;
52708;SDS011;38606;52.986;6.980;2022-09-30T01:13:20;6.75;;;4.80;;
52708;SDS011;38606;52.986;6.980;2022-09-30T01:30:52;4.35;;;3.90;;
52708;SDS011;38606;52.986;6.980;2022-09-30T01:36:13;5.15;;;4.30;;
52708;SDS011;38606;52.986;6.980;2022-09-30T01:39:14;6.22;;;4.40;;
52708;SDS011;38606;52.986;6.980;2022-09-30T01:42:11;3.97;;;3.58;;
52708;SDS011;38606;52.986;6.980;2022-09-30T01:47:31;4.78;;;4.28;;
52708;SDS011;38606;52.986;6.980;2022-09-30T01:50:08;5.35;;;4.43;;
52708;SDS011;38606;52.986;6.980;2022-09-30T01:52:55;6.68;;;4.40;;
52708;SDS011;38606;52.986;6.980;2022-09-30T01:55:32;4.82;;;4.35;;
52708;SDS011;38606;52.986;6.980;2022-09-30T01:58:05;6.05;;;5.15;;
52708;SDS011;38606;52.986;6.980;2022-09-30T02:00:43;5.53;;;4.90;;
52708;SDS011;38606;52.986;6.980;2022-09-30T02:03:19;5.55;;;4.90;;
52708;SDS011;38606;52.986;6.980;2022-09-30T02:05:58;5.75;;;5.15;;
52708;SDS011;38606;52.986;6.980;2022-09-30T02:11:31;6.03;;;5.25;;
52708;SDS011;38606;52.986;6.980;2022-09-30T02:14:11;5.32;;;4.82;;
52708;SDS011;38606;52.986;6.980;2022-09-30T02:16:45;5.55;;;4.95;;
52708;SDS011;38606;52.986;6.980;2022-09-30T02:19:30;5.03;;;4.53;;
52708;SDS011;38606;52.986;6.980;2022-09-30T02:22:03;5.50;;;4.97;;
52708;SDS011;38606;52.986;6.980;2022-09-30T02:24:39;5.40;;;4.90;;
52708;SDS011;38606;52.986;6.980;2022-09-30T02:27:08;4.50;;;4.10;;
52708;SDS011;38606;52.986;6.980;2022-09-30T02:29:41;4.97;;;4.47;;
52708;SDS011;38606;52.986;6.980;2022-09-30T02:32:25;4.43;;;4.03;;
52708;SDS011;38606;52.986;6.980;2022-09-30T02:34:56;6.60;;;4.90;;
52708;SDS011;38606;52.986;6.980;2022-09-30T02:37:36;4.13;;;3.72;;
52708;SDS011;38606;52.986;6.980;2022-09-30T02:40:13;4.55;;;3.83;;
52708;SDS011;38606;52.986;6.980;2022-09-30T02:42:45;4.72;;;4.07;;
52708;SDS011;38606;52.986;6.980;2022-09-30T02:45:12;4.55;;;4.15;;
52708;SDS011;38606;52.986;6.980;2022-09-30T02:50:51;4.43;;;4.03;;
52708;SDS011;38606;52.986;6.980;2022-09-30T02:53:39;4.10;;;3.75;;
52708;SDS011;38606;52.986;6.980;2022-09-30T02:58:53;5.50;;;4.97;;
52708;SDS011;38606;52.986;6.980;2022-09-30T03:01:21;5.03;;;4.00;;
52708;SDS011;38606;52.986;6.980;2022-09-30T03:04:49;4.53;;;4.13;;
52708;SDS011;38606;52.986;6.980;2022-09-30T03:06:46;4.15;;;3.75;;
52708;SDS011;38606;52.986;6.980;2022-09-30T03:09:12;5.78;;;4.25;;
52708;SDS011;38606;52.986;6.980;2022-09-30T03:11:38;4.30;;;3.90;;
52708;SDS011;38606;52.986;6.980;2022-09-30T03:14:22;6.25;;;5.00;;
52708;SDS011;38606;52.986;6.980;2022-09-30T03:17:14;4.65;;;4.25;;
52708;SDS011;38606;52.986;6.980;2022-09-30T03:28:16;7.55;;;4.10;;
52708;SDS011;38606;52.986;6.980;2022-09-30T03:30:53;5.57;;;4.97;;
52708;SDS011;38606;52.986;6.980;2022-09-30T03:33:24;5.10;;;4.50;;
52708;SDS011;38606;52.986;6.980;2022-09-30T03:39:09;4.18;;;3.75;;
52708;SDS011;38606;52.986;6.980;2022-09-30T03:41:57;4.93;;;4.07;;
52708;SDS011;38606;52.986;6.980;2022-09-30T03:44:41;5.00;;;4.50;;
52708;SDS011;38606;52.986;6.980;2022-09-30T03:47:19;4.55;;;3.88;;
52708;SDS011;38606;52.986;6.980;2022-09-30T03:49:47;4.18;;;3.78;;
52708;SDS011;38606;52.986;6.980;2022-09-30T03:52:16;5.25;;;4.45;;
52708;SDS011;38606;52.986;6.980;2022-09-30T03:57:19;4.32;;;3.92;;
52708;SDS011;38606;52.986;6.980;2022-09-30T03:59:45;5.90;;;4.40;;
52708;SDS011;38606;52.986;6.980;2022-09-30T04:02:11;5.57;;;4.95;;
52708;SDS011;38606;52.986;6.980;2022-09-30T04:04:40;5.18;;;4.47;;
52708;SDS011;38606;52.986;6.980;2022-09-30T04:07:09;6.93;;;5.22;;
52708;SDS011;38606;52.986;6.980;2022-09-30T04:09:36;5.50;;;4.55;;
52708;SDS011;38606;52.986;6.980;2022-09-30T04:12:03;5.25;;;4.38;;
52708;SDS011;38606;52.986;6.980;2022-09-30T04:14:29;5.00;;;4.43;;
52708;SDS011;38606;52.986;6.980;2022-09-30T04:16:55;5.30;;;4.65;;
52708;SDS011;38606;52.986;6.980;2022-09-30T04:19:21;6.20;;;4.43;;
52708;SDS011;38606;52.986;6.980;2022-09-30T04:21:47;4.60;;;4.20;;
52708;SDS011;38606;52.986;6.980;2022-09-30T04:24:14;4.65;;;4.20;;
52708;SDS011;38606;52.986;6.980;2022-09-30T04:26:40;6.63;;;4.32;;
52708;SDS011;38606;52.986;6.980;2022-09-30T04:29:05;4.68;;;4.00;;
52708;SDS011;38606;52.986;6.980;2022-09-30T04:31:31;5.72;;;4.60;;
52708;SDS011;38606;52.986;6.980;2022-09-30T04:33:57;5.47;;;4.75;;
52708;SDS011;38606;52.986;6.980;2022-09-30T04:36:22;5.00;;;4.50;;
52708;SDS011;38606;52.986;6.980;2022-09-30T04:38:48;5.63;;;4.60;;
52708;SDS011;38606;52.986;6.980;2022-09-30T04:41:14;4.80;;;4.30;;
52708;SDS011;38606;52.986;6.980;2022-09-30T04:43:41;11.27;;;4.97;;
52708;SDS011;38606;52.986;6.980;2022-09-30T04:46:18;9.15;;;5.47;;
52708;SDS011;38606;52.986;6.980;2022-09-30T04:48:45;14.50;;;4.35;;
52708;SDS011;38606;52.986;6.980;2022-09-30T04:51:12;233.45;;;12.77;;
52708;SDS011;38606;52.986;6.980;2022-09-30T04:53:40;14.40;;;5.05;;
52708;SDS011;38606;52.986;6.980;2022-09-30T04:56:06;24.23;;;5.40;;
52708;SDS011;38606;52.986;6.980;2022-09-30T04:58:32;14.02;;;5.00;;
52708;SDS011;38606;52.986;6.980;2022-09-30T05:00:58;8.77;;;5.43;;
52708;SDS011;38606;52.986;6.980;2022-09-30T05:03:28;14.20;;;5.13;;
52708;SDS011;38606;52.986;6.980;2022-09-30T05:05:54;14.52;;;5.50;;
52708;SDS011;38606;52.986;6.980;2022-09-30T05:08:20;8.23;;;5.10;;
52708;SDS011;38606;52.986;6.980;2022-09-30T05:10:53;11.50;;;5.40;;
52708;SDS011;38606;52.986;6.980;2022-09-30T05:13:21;12.15;;;5.53;;
52708;SDS011;38606;52.986;6.980;2022-09-30T05:15:47;15.57;;;5.82;;
52708;SDS011;38606;52.986;6.980;2022-09-30T05:18:14;33.75;;;5.90;;
52708;SDS011;38606;52.986;6.980;2022-09-30T05:20:40;48.47;;;6.35;;
52708;SDS011;38606;52.986;6.980;2022-09-30T05:23:06;100.53;;;8.07;;
52708;SDS011;38606;52.986;6.980;2022-09-30T05:25:33;160.73;;;10.13;;
52708;SDS011;38606;52.986;6.980;2022-09-30T05:28:00;48.78;;;6.43;;
52708;SDS011;38606;52.986;6.980;2022-09-30T05:30:26;116.88;;;8.60;;
52708;SDS011;38606;52.986;6.980;2022-09-30T05:32:52;66.43;;;7.32;;
52708;SDS011;38606;52.986;6.980;2022-09-30T05:35:18;35.85;;;6.25;;
52708;SDS011;38606;52.986;6.980;2022-09-30T05:37:43;41.13;;;6.15;;
52708;SDS011;38606;52.986;6.980;2022-09-30T05:40:09;53.45;;;6.45;;
52708;SDS011;38606;52.986;6.980;2022-09-30T05:42:35;15.65;;;5.53;;
52708;SDS011;38606;52.986;6.980;2022-09-30T05:45:04;115.78;;;7.50;;
52708;SDS011;38606;52.986;6.980;2022-09-30T05:47:31;217.02;;;11.95;;
52708;SDS011;38606;52.986;6.980;2022-09-30T05:49:57;602.85;;;26.88;;
52708;SDS011;38606;52.986;6.980;2022-09-30T05:52:23;28.45;;;5.82;;
52708;SDS011;38606;52.986;6.980;2022-09-30T05:54:49;38.00;;;6.20;;
52708;SDS011;38606;52.986;6.980;2022-09-30T05:57:14;145.68;;;9.90;;
52708;SDS011;38606;52.986;6.980;2022-09-30T05:59:41;153.65;;;10.65;;
52708;SDS011;38606;52.986;6.980;2022-09-30T06:02:08;71.25;;;7.82;;
52708;SDS011;38606;52.986;6.980;2022-09-30T06:04:34;21.10;;;7.07;;
52708;SDS011;38606;52.986;6.980;2022-09-30T06:07:00;31.00;;;8.10;;
52708;SDS011;38606;52.986;6.980;2022-09-30T06:09:26;627.67;;;31.05;;
52708;SDS011;38606;52.986;6.980;2022-09-30T06:11:51;180.27;;;13.77;;
52708;SDS011;38606;52.986;6.980;2022-09-30T06:14:18;116.25;;;11.40;;
52708;SDS011;38606;52.986;6.980;2022-09-30T06:16:44;30.73;;;10.30;;
52708;SDS011;38606;52.986;6.980;2022-09-30T06:19:10;212.73;;;16.85;;
52708;SDS011;38606;52.986;6.980;2022-09-30T06:21:35;84.30;;;12.35;;
52708;SDS011;38606;52.986;6.980;2022-09-30T06:24:01;229.30;;;20.02;;
52708;SDS011;38606;52.986;6.980;2022-09-30T06:26:27;21.10;;;10.23;;
52708;SDS011;38606;52.986;6.980;2022-09-30T06:28:53;10.63;;;9.15;;
52708;SDS011;38606;52.986;6.980;2022-09-30T06:31:18;10.35;;;9.25;;
52708;SDS011;38606;52.986;6.980;2022-09-30T06:33:44;12.73;;;10.27;;
52708;SDS011;38606;52.986;6.980;2022-09-30T06:36:10;13.90;;;11.05;;
52708;SDS011;38606;52.986;6.980;2022-09-30T06:38:36;17.15;;;10.65;;
52708;SDS011;38606;52.986;6.980;2022-09-30T06:41:04;12.05;;;10.85;;
52708;SDS011;38606;52.986;6.980;2022-09-30T06:43:30;10.75;;;9.70;;
52708;SDS011;38606;52.986;6.980;2022-09-30T06:45:55;11.88;;;10.68;;
52708;SDS011;38606;52.986;6.980;2022-09-30T06:48:21;10.77;;;9.68;;
52708;SDS011;38606;52.986;6.980;2022-09-30T06:50:47;14.63;;;13.07;;
52708;SDS011;38606;52.986;6.980;2022-09-30T06:53:13;15.80;;;13.85;;
52708;SDS011;38606;52.986;6.980;2022-09-30T06:55:39;17.35;;;14.80;;
52708;SDS011;38606;52.986;6.980;2022-09-30T06:58:06;17.60;;;14.05;;
52708;SDS011;38606;52.986;6.980;2022-09-30T07:00:35;18.35;;;15.27;;
52708;SDS011;38606;52.986;6.980;2022-09-30T07:03:02;17.60;;;14.32;;
52708;SDS011;38606;52.986;6.980;2022-09-30T07:05:29;19.70;;;14.75;;
52708;SDS011;38606;52.986;6.980;2022-09-30T07:07:56;16.08;;;14.18;;
52708;SDS011;38606;52.986;6.980;2022-09-30T07:10:22;17.30;;;14.55;;
52708;SDS011;38606;52.986;6.980;2022-09-30T07:12:49;18.52;;;14.50;;
52708;SDS011;38606;52.986;6.980;2022-09-30T07:15:15;18.55;;;15.68;;
52708;SDS011;38606;52.986;6.980;2022-09-30T07:17:42;17.23;;;15.18;;
52708;SDS011;38606;52.986;6.980;2022-09-30T07:20:08;19.42;;;17.02;;
52708;SDS011;38606;52.986;6.980;2022-09-30T07:22:34;22.20;;;16.48;;
52708;SDS011;38606;52.986;6.980;2022-09-30T07:25:00;19.08;;;16.65;;
52708;SDS011;38606;52.986;6.980;2022-09-30T07:27:28;19.60;;;15.88;;
52708;SDS011;38606;52.986;6.980;2022-09-30T07:29:56;18.58;;;16.25;;
52708;SDS011;38606;52.986;6.980;2022-09-30T07:32:23;16.60;;;14.38;;
52708;SDS011;38606;52.986;6.980;2022-09-30T07:34:49;19.77;;;15.50;;
52708;SDS011;38606;52.986;6.980;2022-09-30T07:37:15;17.23;;;14.73;;
52708;SDS011;38606;52.986;6.980;2022-09-30T07:39:43;19.10;;;14.40;;
52708;SDS011;38606;52.986;6.980;2022-09-30T07:42:10;19.65;;;15.20;;
52708;SDS011;38606;52.986;6.980;2022-09-30T07:44:38;21.23;;;15.02;;
52708;SDS011;38606;52.986;6.980;2022-09-30T07:47:06;21.98;;;15.70;;
52708;SDS011;38606;52.986;6.980;2022-09-30T07:49:33;19.35;;;14.43;;
52708;SDS011;38606;52.986;6.980;2022-09-30T07:51:59;19.25;;;15.07;;
52708;SDS011;38606;52.986;6.980;2022-09-30T07:54:27;20.88;;;13.90;;
52708;SDS011;38606;52.986;6.980;2022-09-30T07:56:55;18.40;;;15.18;;
52708;SDS011;38606;52.986;6.980;2022-09-30T07:59:22;19.83;;;14.05;;
52708;SDS011;38606;52.986;6.980;2022-09-30T08:01:48;20.20;;;13.57;;
52708;SDS011;38606;52.986;6.980;2022-09-30T08:04:15;20.70;;;14.70;;
52708;SDS011;38606;52.986;6.980;2022-09-30T08:06:45;22.20;;;15.35;;
52708;SDS011;38606;52.986;6.980;2022-09-30T08:09:13;20.85;;;14.45;;
52708;SDS011;38606;52.986;6.980;2022-09-30T08:11:41;22.88;;;14.70;;
52708;SDS011;38606;52.986;6.980;2022-09-30T08:14:10;20.83;;;14.05;;
52708;SDS011;38606;52.986;6.980;2022-09-30T08:16:45;22.40;;;13.48;;
52708;SDS011;38606;52.986;6.980;2022-09-30T08:19:15;18.80;;;12.70;;
52708;SDS011;38606;52.986;6.980;2022-09-30T08:21:43;18.33;;;12.57;;
52708;SDS011;38606;52.986;6.980;2022-09-30T08:24:09;17.42;;;13.15;;
52708;SDS011;38606;52.986;6.980;2022-09-30T08:26:36;23.10;;;13.85;;
52708;SDS011;38606;52.986;6.980;2022-09-30T08:29:02;21.35;;;13.02;;
52708;SDS011;38606;52.986;6.980;2022-09-30T08:31:28;18.33;;;12.32;;
52708;SDS011;38606;52.986;6.980;2022-09-30T08:33:54;19.92;;;13.77;;
52708;SDS011;38606;52.986;6.980;2022-09-30T08:36:21;18.65;;;12.93;;
52708;SDS011;38606;52.986;6.980;2022-09-30T08:38:48;22.58;;;12.88;;
52708;SDS011;38606;52.986;6.980;2022-09-30T08:52:48;20.02;;;12.57;;
52708;SDS011;38606;52.986;6.980;2022-09-30T08:55:28;19.88;;;13.35;;
52708;SDS011;38606;52.986;6.980;2022-09-30T08:58:43;18.85;;;12.35;;
52708;SDS011;38606;52.986;6.980;2022-09-30T09:03:43;17.42;;;11.38;;
52708;SDS011;38606;52.986;6.980;2022-09-30T09:06:14;16.95;;;10.43;;
52708;SDS011;38606;52.986;6.980;2022-09-30T09:08:58;15.35;;;9.80;;
52708;SDS011;38606;52.986;6.980;2022-09-30T09:19:46;13.27;;;9.13;;
52708;SDS011;38606;52.986;6.980;2022-09-30T09:22:23;12.68;;;7.90;;
52708;SDS011;38606;52.986;6.980;2022-09-30T09:24:50;15.57;;;9.93;;
52708;SDS011;38606;52.986;6.980;2022-09-30T09:27:19;12.52;;;8.63;;
52708;SDS011;38606;52.986;6.980;2022-09-30T09:30:02;12.27;;;8.13;;
52708;SDS011;38606;52.986;6.980;2022-09-30T09:32:31;12.20;;;8.10;;
52708;SDS011;38606;52.986;6.980;2022-09-30T09:34:59;9.57;;;7.70;;
52708;SDS011;38606;52.986;6.980;2022-09-30T09:37:37;9.50;;;6.95;;
52708;SDS011;38606;52.986;6.980;2022-09-30T09:43:12;6.60;;;5.22;;
52708;SDS011;38606;52.986;6.980;2022-09-30T09:45:56;5.35;;;4.70;;
52708;SDS011;38606;52.986;6.980;2022-09-30T09:48:28;6.90;;;4.85;;
52708;SDS011;38606;52.986;6.980;2022-09-30T09:51:02;8.05;;;4.85;;
52708;SDS011;38606;52.986;6.980;2022-09-30T09:53:41;6.00;;;4.43;;
52708;SDS011;38606;52.986;6.980;2022-09-30T09:56:16;9.32;;;4.93;;
52708;SDS011;38606;52.986;6.980;2022-09-30T10:01:39;6.65;;;5.20;;
52708;SDS011;38606;52.986;6.980;2022-09-30T10:06:46;7.20;;;4.43;;
52708;SDS011;38606;52.986;6.980;2022-09-30T10:11:52;5.25;;;4.60;;
52708;SDS011;38606;52.986;6.980;2022-09-30T10:17:31;5.22;;;4.05;;
52708;SDS011;38606;52.986;6.980;2022-09-30T10:20:00;4.97;;;3.90;;
52708;SDS011;38606;52.986;6.980;2022-09-30T10:22:49;5.15;;;3.60;;
52708;SDS011;38606;52.986;6.980;2022-09-30T10:25:23;4.15;;;3.67;;
52708;SDS011;38606;52.986;6.980;2022-09-30T10:27:54;7.57;;;4.03;;
52708;SDS011;38606;52.986;6.980;2022-09-30T10:30:56;5.50;;;3.90;;
52708;SDS011;38606;52.986;6.980;2022-09-30T10:36:17;4.57;;;3.20;;
52708;SDS011;38606;52.986;6.980;2022-09-30T10:38:53;3.90;;;3.50;;
52708;SDS011;38606;52.986;6.980;2022-09-30T10:41:31;5.95;;;3.70;;
52708;SDS011;38606;52.986;6.980;2022-09-30T10:44:41;5.25;;;3.15;;
52708;SDS011;38606;52.986;6.980;2022-09-30T10:46:49;5.70;;;3.47;;
52708;SDS011;38606;52.986;6.980;2022-09-30T10:49:30;4.13;;;3.35;;
52708;SDS011;38606;52.986;6.980;2022-09-30T10:52:03;3.67;;;2.72;;
52708;SDS011;38606;52.986;6.980;2022-09-30T10:57:23;3.47;;;2.47;;
52708;SDS011;38606;52.986;6.980;2022-09-30T10:59:51;2.80;;;2.55;;
52708;SDS011;38606;52.986;6.980;2022-09-30T11:02:38;3.72;;;2.70;;
52708;SDS011;38606;52.986;6.980;2022-09-30T11:05:32;5.60;;;2.70;;
52708;SDS011;38606;52.986;6.980;2022-09-30T11:08:17;3.47;;;3.17;;
52708;SDS011;38606;52.986;6.980;2022-09-30T11:11:15;5.53;;;3.53;;
52708;SDS011;38606;52.986;6.980;2022-09-30T11:16:28;5.72;;;3.38;;
52708;SDS011;38606;52.986;6.980;2022-09-30T11:27:04;4.03;;;3.63;;
52708;SDS011;38606;52.986;6.980;2022-09-30T11:43:05;7.25;;;5.05;;
52708;SDS011;38606;52.986;6.980;2022-09-30T11:45:55;6.43;;;5.05;;
52708;SDS011;38606;52.986;6.980;2022-09-30T11:48:39;6.28;;;4.72;;
52708;SDS011;38606;52.986;6.980;2022-09-30T12:08:02;5.80;;;4.70;;
52708;SDS011;38606;52.986;6.980;2022-09-30T12:10:40;6.20;;;4.63;;
52708;SDS011;38606;52.986;6.980;2022-09-30T12:13:17;7.03;;;3.88;;
52708;SDS011;38606;52.986;6.980;2022-09-30T12:15:47;5.63;;;4.00;;
52708;SDS011;38606;52.986;6.980;2022-09-30T12:21:20;5.97;;;3.85;;
52708;SDS011;38606;52.986;6.980;2022-09-30T12:24:08;6.85;;;4.80;;
52708;SDS011;38606;52.986;6.980;2022-09-30T12:26:43;5.13;;;4.43;;
52708;SDS011;38606;52.986;6.980;2022-09-30T12:29:14;7.82;;;5.80;;
52708;SDS011;38606;52.986;6.980;2022-09-30T12:43:37;9.52;;;6.82;;
52708;SDS011;38606;52.986;6.980;2022-09-30T12:49:21;11.45;;;7.45;;
52708;SDS011;38606;52.986;6.980;2022-09-30T12:51:52;9.77;;;7.07;;
52708;SDS011;38606;52.986;6.980;2022-09-30T12:54:30;12.18;;;8.10;;
52708;SDS011;38606;52.986;6.980;2022-09-30T12:57:01;10.48;;;8.20;;
52708;SDS011;38606;52.986;6.980;2022-09-30T12:59:32;12.02;;;8.07;;
52708;SDS011;38606;52.986;6.980;2022-09-30T13:02:00;13.13;;;9.88;;
52708;SDS011;38606;52.986;6.980;2022-09-30T13:09:34;12.10;;;8.93;;
52708;SDS011;38606;52.986;6.980;2022-09-30T13:14:34;11.77;;;7.68;;
52708;SDS011;38606;52.986;6.980;2022-09-30T13:32:45;8.82;;;7.43;;
52708;SDS011;38606;52.986;6.980;2022-09-30T13:40:48;8.30;;;7.20;;
52708;SDS011;38606;52.986;6.980;2022-09-30T13:43:25;9.65;;;8.35;;
52708;SDS011;38606;52.986;6.980;2022-09-30T13:46:13;10.65;;;7.72;;
52708;SDS011;38606;52.986;6.980;2022-09-30T13:48:47;9.77;;;7.60;;
52708;SDS011;38606;52.986;6.980;2022-09-30T13:51:19;8.57;;;7.43;;
52708;SDS011;38606;52.986;6.980;2022-09-30T13:53:47;8.13;;;7.25;;
52708;SDS011;38606;52.986;6.980;2022-09-30T13:56:20;11.02;;;8.07;;
52708;SDS011;38606;52.986;6.980;2022-09-30T14:02:01;13.50;;;9.75;;
52708;SDS011;38606;52.986;6.980;2022-09-30T14:24:12;10.80;;;9.68;;
52708;SDS011;38606;52.986;6.980;2022-09-30T14:26:54;10.60;;;9.50;;
52708;SDS011;38606;52.986;6.980;2022-09-30T14:29:48;12.57;;;9.88;;
52708;SDS011;38606;52.986;6.980;2022-09-30T14:35:03;10.85;;;9.45;;
52708;SDS011;38606;52.986;6.980;2022-09-30T14:37:52;13.25;;;9.75;;
52708;SDS011;38606;52.986;6.980;2022-09-30T14:40:35;12.30;;;9.82;;
52708;SDS011;38606;52.986;6.980;2022-09-30T14:43:11;12.95;;;9.50;;
52708;SDS011;38606;52.986;6.980;2022-09-30T14:45:42;12.90;;;9.73;;
52708;SDS011;38606;52.986;6.980;2022-09-30T14:48:14;14.27;;;9.65;;
52708;SDS011;38606;52.986;6.980;2022-09-30T14:51:05;11.57;;;9.63;;
52708;SDS011;38606;52.986;6.980;2022-09-30T14:53:33;11.63;;;9.68;;
52708;SDS011;38606;52.986;6.980;2022-09-30T14:56:02;12.43;;;9.13;;
52708;SDS011;38606;52.986;6.980;2022-09-30T14:58:43;11.80;;;9.90;;
52708;SDS011;38606;52.986;6.980;2022-09-30T15:01:31;10.27;;;9.10;;
52708;SDS011;38606;52.986;6.980;2022-09-30T15:04:05;14.35;;;10.25;;
52708;SDS011;38606;52.986;6.980;2022-09-30T15:06:38;10.55;;;9.25;;
52708;SDS011;38606;52.986;6.980;2022-09-30T15:09:19;11.85;;;9.95;;
52708;SDS011;38606;52.986;6.980;2022-09-30T15:11:52;14.50;;;10.90;;
52708;SDS011;38606;52.986;6.980;2022-09-30T15:14:19;11.10;;;8.77;;
52708;SDS011;38606;52.986;6.980;2022-09-30T15:16:51;11.93;;;9.57;;
52708;SDS011;38606;52.986;6.980;2022-09-30T15:19:33;10.88;;;9.70;;
52708;SDS011;38606;52.986;6.980;2022-09-30T15:22:08;12.25;;;10.20;;
52708;SDS011;38606;52.986;6.980;2022-09-30T15:24:36;10.82;;;9.30;;
52708;SDS011;38606;52.986;6.980;2022-09-30T15:27:04;11.65;;;9.57;;
52708;SDS011;38606;52.986;6.980;2022-09-30T15:29:34;12.43;;;9.98;;
52708;SDS011;38606;52.986;6.980;2022-09-30T15:32:12;11.35;;;10.15;;
52708;SDS011;38606;52.986;6.980;2022-09-30T15:34:42;14.70;;;9.98;;
52708;SDS011;38606;52.986;6.980;2022-09-30T15:37:16;11.57;;;9.82;;
52708;SDS011;38606;52.986;6.980;2022-09-30T15:39:46;11.20;;;10.00;;
52708;SDS011;38606;52.986;6.980;2022-09-30T15:48:00;12.30;;;9.50;;
52708;SDS011;38606;52.986;6.980;2022-09-30T15:53:04;10.90;;;9.65;;
52708;SDS011;38606;52.986;6.980;2022-09-30T15:55:39;15.02;;;10.20;;
52708;SDS011;38606;52.986;6.980;2022-09-30T16:01:12;11.15;;;9.82;;
52708;SDS011;38606;52.986;6.980;2022-09-30T16:03:50;14.10;;;10.88;;
52708;SDS011;38606;52.986;6.980;2022-09-30T16:06:25;12.70;;;10.80;;
52708;SDS011;38606;52.986;6.980;2022-09-30T16:08:57;15.73;;;11.27;;
52708;SDS011;38606;52.986;6.980;2022-09-30T16:11:27;12.43;;;10.38;;
52708;SDS011;38606;52.986;6.980;2022-09-30T16:13:53;17.77;;;11.73;;
52708;SDS011;38606;52.986;6.980;2022-09-30T16:16:26;13.30;;;11.38;;
52708;SDS011;38606;52.986;6.980;2022-09-30T16:18:56;16.08;;;11.82;;
52708;SDS011;38606;52.986;6.980;2022-09-30T16:24:39;12.77;;;11.32;;
52708;SDS011;38606;52.986;6.980;2022-09-30T16:27:17;13.73;;;10.77;;
52708;SDS011;38606;52.986;6.980;2022-09-30T16:29:46;12.98;;;10.80;;
52708;SDS011;38606;52.986;6.980;2022-09-30T16:32:11;13.05;;;11.50;;
52708;SDS011;38606;52.986;6.980;2022-09-30T16:34:38;12.90;;;11.27;;
52708;SDS011;38606;52.986;6.980;2022-09-30T16:37:11;12.57;;;11.27;;
52708;SDS011;38606;52.986;6.980;2022-09-30T16:39:38;14.85;;;11.68;;
52708;SDS011;38606;52.986;6.980;2022-09-30T16:42:04;12.88;;;11.57;;
52708;SDS011;38606;52.986;6.980;2022-09-30T16:44:30;16.05;;;11.13;;
52708;SDS011;38606;52.986;6.980;2022-09-30T16:47:02;14.45;;;10.73;;
52708;SDS011;38606;52.986;6.980;2022-09-30T16:49:28;11.50;;;10.35;;
52708;SDS011;38606;52.986;6.980;2022-09-30T16:51:54;12.20;;;10.00;;
52708;SDS011;38606;52.986;6.980;2022-09-30T16:54:20;16.38;;;11.55;;
52708;SDS011;38606;52.986;6.980;2022-09-30T16:56:45;12.90;;;10.68;;
52708;SDS011;38606;52.986;6.980;2022-09-30T16:59:12;12.52;;;10.52;;
52708;SDS011;38606;52.986;6.980;2022-09-30T17:01:39;10.98;;;9.77;;
52708;SDS011;38606;52.986;6.980;2022-09-30T17:04:05;11.43;;;10.30;;
52708;SDS011;38606;52.986;6.980;2022-09-30T17:06:32;12.65;;;10.32;;
52708;SDS011;38606;52.986;6.980;2022-09-30T17:08:58;11.15;;;10.05;;
52708;SDS011;38606;52.986;6.980;2022-09-30T17:11:27;11.65;;;10.45;;
52708;SDS011;38606;52.986;6.980;2022-09-30T17:13:55;12.10;;;10.32;;
52708;SDS011;38606;52.986;6.980;2022-09-30T17:16:21;12.40;;;11.10;;
52708;SDS011;38606;52.986;6.980;2022-09-30T17:18:48;11.95;;;10.68;;
52708;SDS011;38606;52.986;6.980;2022-09-30T17:21:18;16.77;;;11.55;;
52708;SDS011;38606;52.986;6.980;2022-09-30T17:23:45;14.65;;;11.65;;
52708;SDS011;38606;52.986;6.980;2022-09-30T17:26:12;12.25;;;11.02;;
52708;SDS011;38606;52.986;6.980;2022-09-30T17:28:38;13.63;;;11.90;;
52708;SDS011;38606;52.986;6.980;2022-09-30T17:31:04;12.32;;;11.00;;
52708;SDS011;38606;52.986;6.980;2022-09-30T17:33:32;12.32;;;11.13;;
52708;SDS011;38606;52.986;6.980;2022-09-30T17:36:06;11.10;;;9.90;;
52708;SDS011;38606;52.986;6.980;2022-09-30T17:38:34;11.77;;;10.33;;
52708;SDS011;38606;52.986;6.980;2022-09-30T17:41:00;11.60;;;10.40;;
52708;SDS011;38606;52.986;6.980;2022-09-30T17:43:45;11.50;;;10.10;;
52708;SDS011;38606;52.986;6.980;2022-09-30T17:46:11;11.95;;;10.65;;
52708;SDS011;38606;52.986;6.980;2022-09-30T17:48:39;12.18;;;10.27;;
52708;SDS011;38606;52.986;6.980;2022-09-30T17:51:05;15.77;;;9.73;;
52708;SDS011;38606;52.986;6.980;2022-09-30T17:53:31;10.48;;;9.38;;
52708;SDS011;38606;52.986;6.980;2022-09-30T17:56:01;9.90;;;8.88;;
52708;SDS011;38606;52.986;6.980;2022-09-30T17:58:36;11.02;;;9.55;;
52708;SDS011;38606;52.986;6.980;2022-09-30T18:01:07;10.25;;;9.15;;
52708;SDS011;38606;52.986;6.980;2022-09-30T18:03:33;12.18;;;8.55;;
52708;SDS011;38606;52.986;6.980;2022-09-30T18:06:00;10.25;;;8.48;;
52708;SDS011;38606;52.986;6.980;2022-09-30T18:08:26;11.68;;;8.45;;
52708;SDS011;38606;52.986;6.980;2022-09-30T18:10:55;10.32;;;7.72;;
52708;SDS011;38606;52.986;6.980;2022-09-30T18:13:24;9.27;;;6.97;;
52708;SDS011;38606;52.986;6.980;2022-09-30T18:15:50;8.82;;;7.20;;
52708;SDS011;38606;52.986;6.980;2022-09-30T18:18:17;9.05;;;7.10;;
52708;SDS011;38606;52.986;6.980;2022-09-30T18:20:43;9.35;;;7.18;;
52708;SDS011;38606;52.986;6.980;2022-09-30T18:23:10;9.82;;;7.00;;
52708;SDS011;38606;52.986;6.980;2022-09-30T18:25:36;8.10;;;6.53;;
52708;SDS011;38606;52.986;6.980;2022-09-30T18:28:05;7.00;;;6.30;;
52708;SDS011;38606;52.986;6.980;2022-09-30T18:30:38;7.50;;;6.70;;
52708;SDS011;38606;52.986;6.980;2022-09-30T18:33:04;9.77;;;6.10;;
52708;SDS011;38606;52.986;6.980;2022-09-30T18:35:32;8.52;;;5.88;;
52708;SDS011;38606;52.986;6.980;2022-09-30T18:38:02;8.40;;;6.15;;
52708;SDS011;38606;52.986;6.980;2022-09-30T18:40:28;9.43;;;6.07;;
52708;SDS011;38606;52.986;6.980;2022-09-30T18:42:56;8.70;;;6.85;;
52708;SDS011;38606;52.986;6.980;2022-09-30T18:45:24;10.40;;;6.35;;
52708;SDS011;38606;52.986;6.980;2022-09-30T18:47:52;6.85;;;5.63;;
52708;SDS011;38606;52.986;6.980;2022-09-30T18:50:19;7.65;;;5.70;;
52708;SDS011;38606;52.986;6.980;2022-09-30T18:52:47;7.90;;;5.90;;
52708;SDS011;38606;52.986;6.980;2022-09-30T18:55:13;11.27;;;6.25;;
52708;SDS011;38606;52.986;6.980;2022-09-30T18:57:39;9.70;;;6.68;;
52708;SDS011;38606;52.986;6.980;2022-09-30T19:00:06;10.50;;;6.30;;
52708;SDS011;38606;52.986;6.980;2022-09-30T19:02:34;8.55;;;6.40;;